createdAt,value
2019-04-03T00:01:10.403Z,7.03
2019-04-03T00:06:15.241Z,5.67
2019-04-03T00:11:20.058Z,5.80
2019-04-03T00:16:24.885Z,5.67
2019-04-03T00:21:29.719Z,5.77
2019-04-03T00:26:34.559Z,6.10
2019-04-03T00:31:39.384Z,5.80
2019-04-03T00:36:44.366Z,6.07
2019-04-03T00:41:49.235Z,6.53
2019-04-03T00:46:55.749Z,6.77
2019-04-03T00:52:00.521Z,6.87
2019-04-03T00:57:05.359Z,6.43
2019-04-03T01:02:10.208Z,5.77
2019-04-03T01:07:15.009Z,6.00
2019-04-03T01:12:19.835Z,5.80
2019-04-03T01:17:24.580Z,6.33
2019-04-03T01:22:29.405Z,5.60
2019-04-03T01:27:34.238Z,5.50
2019-04-03T01:32:39.189Z,6.53
2019-04-03T01:37:44.071Z,6.40
2019-04-03T01:42:48.984Z,6.80
2019-04-03T01:47:53.811Z,6.27
2019-04-03T01:52:58.879Z,6.23
2019-04-03T01:58:06.735Z,5.47
2019-04-03T02:03:12.131Z,6.47
2019-04-03T02:08:16.972Z,6.60
2019-04-03T02:13:22.021Z,8.70
2019-04-03T02:18:27.267Z,6.40
2019-04-03T02:23:32.085Z,5.70
2019-04-03T02:28:36.921Z,6.90
2019-04-03T02:33:41.757Z,9.47
2019-04-03T02:38:46.580Z,8.03
2019-04-03T02:43:51.832Z,7.33
2019-04-03T02:48:56.824Z,7.77
2019-04-03T02:54:03.047Z,26.27
2019-04-03T02:59:07.968Z,6.40
2019-04-03T03:04:13.191Z,6.57
2019-04-03T03:09:18.769Z,6.43
2019-04-03T03:14:24.043Z,8.40
2019-04-03T03:19:32.097Z,7.90
2019-04-03T03:24:36.485Z,8.57
2019-04-03T03:29:41.741Z,7.97
2019-04-03T03:34:55.047Z,10.90
2019-04-03T03:39:53.173Z,8.07
2019-04-03T03:45:01.528Z,7.30
2019-04-03T03:50:07.868Z,6.93
2019-04-03T03:55:12.690Z,8.17
2019-04-03T04:05:37.461Z,6.67
2019-04-03T04:10:44.132Z,6.17
2019-04-03T04:15:49.198Z,7.93
2019-04-03T04:20:54.196Z,7.77
2019-04-03T04:26:01.585Z,7.73
2019-04-03T04:31:06.558Z,7.70
2019-04-03T04:36:11.450Z,12.07
2019-04-03T04:41:16.237Z,12.90
2019-04-03T04:46:21.497Z,9.13
2019-04-03T04:51:26.465Z,16.67
2019-04-03T04:56:31.335Z,11.90
2019-04-03T05:01:36.174Z,14.67
2019-04-03T05:06:41.126Z,9.70
2019-04-03T05:11:45.964Z,8.40
2019-04-03T05:16:50.808Z,14.30
2019-04-03T05:21:55.629Z,8.57
2019-04-03T05:27:02.662Z,11.20
2019-04-03T05:32:09.504Z,12.33
2019-04-03T05:37:14.294Z,10.00
2019-04-03T05:42:19.097Z,13.17
2019-04-03T05:47:23.958Z,9.87
2019-04-03T05:52:29.088Z,9.53
2019-04-03T05:57:33.944Z,10.53
2019-04-03T06:02:38.703Z,20.33
2019-04-03T06:07:43.456Z,14.93
2019-04-03T06:12:48.285Z,6.57
2019-04-03T06:17:55.361Z,16.93
2019-04-03T06:22:59.773Z,7.87
2019-04-03T06:28:04.803Z,6.67
2019-04-03T06:33:09.630Z,7.93
2019-04-03T06:38:14.569Z,8.50
2019-04-03T06:43:22.045Z,6.13
2019-04-03T06:48:27.399Z,8.03
2019-04-03T06:53:32.296Z,7.43
2019-04-03T06:58:39.601Z,8.40
2019-04-03T07:03:43.587Z,9.30
2019-04-03T07:08:48.414Z,8.27
2019-04-03T07:13:54.352Z,8.60
2019-04-03T07:18:59.539Z,9.07
2019-04-03T07:24:04.417Z,10.03
2019-04-03T07:29:11.474Z,9.57
2019-04-03T07:34:15.725Z,9.43
2019-04-03T07:39:20.593Z,8.33
2019-04-03T07:44:25.491Z,8.93
2019-04-03T07:49:30.382Z,9.17
2019-04-03T07:54:35.264Z,9.50
2019-04-03T07:59:40.400Z,9.60
2019-04-03T08:04:45.856Z,12.23
2019-04-03T08:09:50.689Z,32.90
2019-04-03T08:14:55.549Z,46.60
2019-04-03T08:20:00.426Z,246.83
2019-04-03T08:25:07.007Z,210.30
2019-04-03T08:30:12.078Z,25.60
2019-04-03T08:35:21.573Z,10.83
2019-04-03T08:40:23.514Z,10.63
2019-04-03T08:45:28.773Z,11.33
2019-04-03T08:50:33.721Z,9.30
2019-04-03T08:55:38.823Z,9.77
2019-04-03T09:00:44.097Z,12.10
2019-04-03T09:05:50.901Z,10.30
2019-04-03T09:10:55.520Z,8.83
2019-04-03T09:16:00.429Z,9.47
2019-04-03T09:21:05.556Z,9.43
2019-04-03T09:26:10.345Z,10.17
2019-04-03T09:31:18.609Z,9.57
2019-04-03T09:36:21.802Z,10.10
2019-04-03T09:41:26.657Z,9.27
2019-04-03T09:46:31.908Z,9.90
2019-04-03T09:51:37.340Z,9.50
2019-04-03T09:56:56.106Z,9.17
2019-04-03T10:01:48.767Z,9.47
2019-04-03T10:06:53.961Z,10.47
2019-04-03T10:11:58.860Z,10.27
2019-04-03T10:17:05.886Z,10.30
2019-04-03T10:22:10.260Z,10.77
2019-04-03T10:27:15.113Z,9.83
2019-04-03T10:32:20.249Z,10.30
2019-04-03T10:37:25.127Z,9.23
2019-04-03T10:42:31.273Z,9.73
2019-04-03T10:47:43.127Z,9.80
2019-04-03T10:52:44.622Z,9.60
2019-04-03T10:57:49.920Z,10.47
2019-04-03T11:02:56.280Z,9.07
2019-04-03T11:08:01.510Z,10.07
2019-04-03T11:13:06.772Z,9.13
2019-04-03T11:18:11.652Z,10.93
2019-04-03T11:23:17.949Z,9.60
2019-04-03T11:28:22.985Z,7.73
2019-04-03T11:33:27.854Z,10.67
2019-04-03T11:38:32.684Z,8.30
2019-04-03T11:43:37.546Z,10.33
2019-04-03T11:48:43.526Z,10.47
2019-04-03T11:53:49.033Z,9.80
2019-04-03T11:58:54.183Z,10.30
2019-04-03T12:03:59.421Z,10.10
2019-04-03T12:09:07.039Z,8.93
2019-04-03T12:14:11.874Z,10.17
2019-04-03T12:19:17.081Z,9.67
2019-04-03T12:24:21.982Z,9.97
2019-04-03T12:29:26.841Z,9.53
2019-04-03T12:34:32.025Z,9.83
2019-04-03T12:39:36.899Z,9.73
2019-04-03T12:44:42.052Z,9.93
2019-04-03T12:49:47.008Z,9.47
2019-04-03T12:54:53.758Z,9.10
2019-04-03T12:59:59.962Z,7.47
2019-04-03T13:05:07.800Z,10.13
2019-04-03T13:10:13.186Z,10.00
2019-04-03T13:15:19.414Z,9.40
2019-04-03T13:20:24.670Z,9.10
2019-04-03T13:25:29.545Z,10.23
2019-04-03T13:30:34.404Z,8.63
2019-04-03T13:35:39.264Z,12.27
2019-04-03T13:40:44.132Z,10.50
2019-04-03T13:45:49.001Z,10.47
2019-04-03T13:50:54.858Z,10.70
2019-04-03T13:56:02.153Z,9.27
2019-04-03T14:01:08.903Z,7.03
2019-04-03T14:06:13.517Z,6.27
2019-04-03T14:11:18.461Z,8.93
2019-04-03T14:16:23.762Z,8.80
2019-04-03T14:21:29.211Z,9.30
2019-04-03T14:26:34.257Z,8.50
2019-04-03T14:31:39.084Z,8.63
2019-04-03T14:36:43.912Z,9.17
2019-04-03T14:41:48.765Z,9.23
2019-04-03T14:46:53.688Z,10.07
2019-04-03T14:51:58.561Z,9.23
2019-04-03T14:57:12.705Z,8.03
2019-04-03T15:02:09.889Z,7.73
2019-04-03T15:07:15.779Z,12.47
2019-04-03T15:12:21.650Z,11.57
2019-04-03T15:17:26.514Z,9.33
2019-04-03T15:22:32.767Z,8.97
2019-04-03T15:27:38.231Z,8.57
2019-04-03T15:32:43.474Z,10.20
2019-04-03T15:37:48.317Z,9.27
2019-04-03T15:42:54.074Z,7.83
2019-04-03T15:47:59.589Z,9.73
2019-04-03T15:53:04.631Z,7.90
2019-04-03T15:58:09.820Z,8.13
2019-04-03T16:03:14.981Z,9.27
2019-04-03T16:08:21.557Z,8.13
2019-04-03T16:13:26.461Z,7.63
2019-04-03T16:18:31.297Z,8.17
2019-04-03T16:23:38.162Z,8.03
2019-04-03T16:28:43.089Z,7.43
2019-04-03T16:33:47.924Z,8.47
2019-04-03T16:38:52.796Z,8.63
2019-04-03T16:43:57.630Z,8.27
2019-04-03T16:49:03.458Z,8.50
2019-04-03T16:54:11.869Z,9.10
2019-04-03T16:59:16.028Z,8.10
2019-04-03T17:04:27.017Z,8.87
2019-04-03T17:09:27.785Z,8.47
2019-04-03T17:14:33.126Z,9.10
2019-04-03T17:19:38.561Z,8.13
2019-04-03T17:24:48.562Z,7.73
2019-04-03T17:29:50.465Z,7.03
2019-04-03T17:34:55.429Z,9.53
2019-04-03T17:40:02.101Z,8.27
2019-04-03T17:45:07.503Z,8.87
2019-04-03T17:50:13.795Z,9.00
2019-04-03T17:55:18.624Z,9.57
2019-04-03T18:00:23.966Z,19.10
2019-04-03T18:05:28.800Z,12.17
2019-04-03T18:10:33.645Z,9.73
2019-04-03T18:15:38.502Z,8.90
2019-04-03T18:20:44.658Z,9.50
2019-04-03T18:25:49.773Z,8.53
2019-04-03T18:30:54.534Z,9.57
2019-04-03T18:35:59.364Z,8.23
2019-04-03T18:41:04.401Z,9.70
2019-04-03T18:46:31.558Z,10.20
2019-04-03T18:51:28.525Z,11.53
2019-04-03T18:56:33.363Z,8.50
2019-04-03T19:01:38.721Z,9.10
2019-04-03T19:06:44.834Z,8.80
2019-04-03T19:11:51.458Z,7.33
2019-04-03T19:16:56.746Z,9.03
2019-04-03T19:22:01.626Z,10.13
2019-04-03T19:27:06.464Z,8.80
2019-04-03T19:32:12.240Z,7.40
2019-04-03T19:37:17.744Z,5.97
2019-04-03T19:42:22.588Z,7.37
2019-04-03T19:47:27.435Z,7.97
2019-04-03T19:52:32.320Z,7.83
2019-04-03T19:57:38.204Z,6.90
2019-04-03T20:02:43.685Z,7.40
2019-04-03T20:07:48.668Z,7.50
2019-04-03T20:12:53.529Z,8.27
2019-04-03T20:17:58.680Z,7.13
2019-04-03T20:23:03.605Z,8.57
2019-04-03T20:28:08.452Z,6.87
2019-04-03T20:33:13.410Z,7.47
2019-04-03T20:38:18.307Z,7.50
2019-04-03T20:43:23.322Z,8.07
2019-04-03T20:48:28.678Z,8.47
2019-04-03T20:53:33.610Z,8.17
2019-04-03T20:58:40.721Z,8.27
2019-04-03T21:03:45.018Z,9.83
2019-04-03T21:08:49.887Z,7.93
2019-04-03T21:13:54.741Z,8.07
2019-04-03T21:18:59.982Z,8.63
2019-04-03T21:24:04.844Z,8.57
2019-04-03T21:29:09.728Z,8.37
2019-04-03T21:34:14.575Z,8.13
2019-04-03T21:39:19.410Z,7.30
2019-04-03T21:44:24.327Z,8.57
2019-04-03T21:49:29.153Z,9.73
2019-04-03T21:54:34.074Z,9.40
2019-04-03T21:59:39.914Z,14.30
2019-04-03T22:04:45.363Z,8.53
2019-04-03T22:09:50.416Z,9.50
2019-04-03T22:14:55.253Z,9.00
2019-04-03T22:20:00.021Z,9.40
2019-04-03T22:25:08.613Z,9.03
2019-04-03T22:30:12.021Z,8.50
2019-04-03T22:35:16.856Z,7.97
2019-04-03T22:40:21.688Z,7.87
2019-04-03T22:45:26.521Z,8.00
2019-04-03T22:50:33.453Z,8.13
2019-04-03T22:55:38.880Z,8.43
2019-04-03T23:00:43.705Z,8.80
2019-04-03T23:05:48.630Z,8.47
2019-04-03T23:10:53.494Z,8.53
2019-04-03T23:15:58.334Z,8.53
2019-04-03T23:21:03.164Z,9.37
2019-04-03T23:26:07.925Z,9.03
2019-04-03T23:31:13.042Z,8.80
2019-04-03T23:36:18.393Z,8.87
2019-04-03T23:41:36.669Z,9.40
2019-04-03T23:46:41.558Z,8.67
2019-04-03T23:51:46.380Z,8.37
2019-04-03T23:56:51.220Z,10.00
